createdAt,value
2023-05-14T00:01:43.764Z,13.52
2023-05-14T00:04:13.437Z,13.25
2023-05-14T00:06:40.119Z,12.82
2023-05-14T00:09:06.672Z,13.70
2023-05-14T00:11:33.371Z,13.67
2023-05-14T00:13:59.982Z,12.45
2023-05-14T00:16:26.729Z,14.00
2023-05-14T00:18:53.349Z,13.13
2023-05-14T00:21:19.962Z,13.05
2023-05-14T00:23:46.556Z,12.87
2023-05-14T00:26:13.112Z,13.07
2023-05-14T00:28:41.867Z,12.52
2023-05-14T00:31:08.582Z,12.95
2023-05-14T00:33:35.297Z,12.98
2023-05-14T00:36:04.212Z,12.20
2023-05-14T00:38:30.808Z,12.82
2023-05-14T00:40:57.451Z,12.80
2023-05-14T00:43:25.222Z,12.63
2023-05-14T00:45:53.375Z,12.50
2023-05-14T00:48:21.441Z,13.03
2023-05-14T00:50:49.534Z,12.35
2023-05-14T00:53:17.126Z,13.02
2023-05-14T00:55:43.801Z,12.18
2023-05-14T00:58:14.062Z,12.30
2023-05-14T01:00:41.309Z,12.03
2023-05-14T01:03:08.786Z,11.65
2023-05-14T01:06:14.212Z,11.50
2023-05-14T01:08:47.066Z,12.68
2023-05-14T01:11:34.068Z,12.27
2023-05-14T01:14:41.129Z,12.47
2023-05-14T01:17:11.256Z,11.68
2023-05-14T01:19:41.632Z,12.25
2023-05-14T01:22:08.466Z,12.85
2023-05-14T01:24:35.187Z,12.27
2023-05-14T01:27:18.656Z,12.43
2023-05-14T01:29:53.368Z,12.32
2023-05-14T01:32:24.541Z,12.68
2023-05-14T01:34:52.338Z,13.32
2023-05-14T01:37:19.315Z,12.07
2023-05-14T01:39:49.206Z,11.87
2023-05-14T01:42:16.002Z,11.85
2023-05-14T01:44:42.993Z,13.20
2023-05-14T01:47:09.596Z,12.52
2023-05-14T01:49:37.254Z,12.00
2023-05-14T01:52:04.150Z,12.63
2023-05-14T01:54:30.784Z,11.73
2023-05-14T01:56:57.345Z,11.98
2023-05-14T01:59:23.926Z,12.25
2023-05-14T02:01:50.571Z,12.70
2023-05-14T02:04:17.269Z,11.93
2023-05-14T02:06:43.895Z,12.00
2023-05-14T02:09:10.493Z,12.07
2023-05-14T02:11:39.572Z,12.30
2023-05-14T02:14:06.135Z,12.02
2023-05-14T02:16:32.877Z,13.10
2023-05-14T02:19:04.195Z,12.93
2023-05-14T02:21:30.830Z,13.10
2023-05-14T02:23:57.537Z,12.95
2023-05-14T02:26:24.089Z,12.50
2023-05-14T02:28:50.802Z,12.20
2023-05-14T02:31:19.447Z,13.30
2023-05-14T02:33:46.071Z,13.30
2023-05-14T02:36:12.799Z,12.63
2023-05-14T02:38:39.480Z,13.30
2023-05-14T02:41:06.108Z,13.50
2023-05-14T02:43:32.664Z,13.73
2023-05-14T02:45:59.257Z,13.55
2023-05-14T02:48:26.212Z,14.07
2023-05-14T02:50:52.833Z,13.95
2023-05-14T02:53:19.425Z,12.97
2023-05-14T02:55:45.991Z,14.05
2023-05-14T02:58:12.576Z,13.70
2023-05-14T03:00:39.188Z,14.73
2023-05-14T03:03:06.340Z,14.02
2023-05-14T03:05:33.261Z,13.93
2023-05-14T03:08:00.365Z,13.90
2023-05-14T03:10:29.218Z,14.52
2023-05-14T03:12:55.751Z,14.32
2023-05-14T03:15:22.397Z,14.25
2023-05-14T03:17:49.312Z,14.43
2023-05-14T03:20:18.393Z,14.00
2023-05-14T03:22:44.994Z,14.52
2023-05-14T03:25:11.583Z,13.10
2023-05-14T03:27:38.247Z,14.35
2023-05-14T03:30:05.832Z,14.73
2023-05-14T03:32:32.602Z,14.38
2023-05-14T03:34:59.279Z,15.55
2023-05-14T03:37:28.288Z,14.90
2023-05-14T03:39:54.822Z,15.02
2023-05-14T03:42:21.375Z,14.67
2023-05-14T03:44:48.064Z,14.60
2023-05-14T03:47:14.613Z,14.45
2023-05-14T03:49:43.603Z,15.23
2023-05-14T03:52:10.168Z,15.43
2023-05-14T03:54:36.737Z,14.23
2023-05-14T03:57:03.397Z,15.88
2023-05-14T03:59:30.011Z,14.38
2023-05-14T04:01:56.589Z,16.02
2023-05-14T04:04:25.341Z,14.68
2023-05-14T04:06:53.995Z,15.10
2023-05-14T04:09:20.566Z,15.32
2023-05-14T04:11:47.097Z,15.30
2023-05-14T04:14:13.639Z,15.02
2023-05-14T04:16:42.692Z,15.75
2023-05-14T04:19:12.427Z,15.20
2023-05-14T04:21:39.260Z,16.02
2023-05-14T04:24:06.319Z,16.15
2023-05-14T04:26:32.974Z,15.60
2023-05-14T04:29:02.958Z,15.55
2023-05-14T04:31:30.435Z,15.43
2023-05-14T04:34:02.235Z,15.52
2023-05-14T04:36:28.918Z,16.85
2023-05-14T04:38:56.061Z,15.48
2023-05-14T04:41:22.637Z,15.77
2023-05-14T04:43:50.764Z,15.33
2023-05-14T04:46:19.851Z,16.38
2023-05-14T04:48:46.581Z,17.65
2023-05-14T04:51:13.151Z,16.70
2023-05-14T04:53:41.890Z,16.45
2023-05-14T04:56:08.460Z,16.80
2023-05-14T04:58:35.308Z,16.35
2023-05-14T05:01:05.016Z,16.35
2023-05-14T05:03:34.750Z,16.50
2023-05-14T05:06:03.940Z,16.75
2023-05-14T05:08:30.946Z,17.10
2023-05-14T05:10:57.478Z,16.23
2023-05-14T05:13:24.137Z,16.52
2023-05-14T05:15:51.214Z,17.17
2023-05-14T05:18:17.811Z,16.58
2023-05-14T05:20:44.399Z,16.03
2023-05-14T05:23:11.022Z,16.02
2023-05-14T05:25:37.653Z,17.15
2023-05-14T05:28:06.453Z,16.77
2023-05-14T05:30:33.069Z,17.88
2023-05-14T05:33:02.163Z,16.53
2023-05-14T05:35:29.131Z,16.40
2023-05-14T05:38:00.448Z,17.15
2023-05-14T05:40:28.092Z,16.90
2023-05-14T05:42:54.653Z,16.80
2023-05-14T05:45:21.416Z,16.27
2023-05-14T05:47:48.083Z,15.32
2023-05-14T05:50:15.069Z,15.88
2023-05-14T05:52:41.642Z,15.90
2023-05-14T05:55:08.622Z,16.58
2023-05-14T05:57:37.503Z,16.07
2023-05-14T06:00:13.195Z,15.93
2023-05-14T06:02:41.110Z,16.40
2023-05-14T06:05:08.847Z,16.27
2023-05-14T06:07:37.857Z,15.90
2023-05-14T06:10:05.038Z,15.77
2023-05-14T06:12:31.831Z,15.60
2023-05-14T06:14:58.419Z,15.00
2023-05-14T06:17:25.664Z,15.98
2023-05-14T06:19:52.976Z,15.60
2023-05-14T06:22:19.693Z,15.40
2023-05-14T06:24:48.750Z,15.50
2023-05-14T06:27:15.338Z,15.38
2023-05-14T06:29:41.915Z,15.18
2023-05-14T06:32:08.948Z,15.15
2023-05-14T06:34:38.174Z,14.53
2023-05-14T06:37:05.636Z,14.85
2023-05-14T06:39:32.237Z,14.57
2023-05-14T06:41:58.871Z,15.05
2023-05-14T06:44:25.629Z,14.57
2023-05-14T06:46:52.282Z,14.97
2023-05-14T06:49:19.144Z,13.90
2023-05-14T06:51:45.951Z,15.05
2023-05-14T06:54:13.042Z,15.43
2023-05-14T06:56:39.657Z,15.07
2023-05-14T06:59:06.347Z,13.90
2023-05-14T07:01:32.963Z,14.52
2023-05-14T07:04:01.983Z,13.68
2023-05-14T07:06:28.658Z,14.50
2023-05-14T07:08:55.274Z,14.38
2023-05-14T07:11:22.323Z,14.27
2023-05-14T07:13:48.991Z,14.25
2023-05-14T07:16:15.654Z,14.75
2023-05-14T07:18:42.349Z,13.60
2023-05-14T07:21:09.148Z,15.10
2023-05-14T07:23:38.900Z,13.73
2023-05-14T07:26:06.549Z,14.82
2023-05-14T07:28:33.346Z,15.00
2023-05-14T07:31:00.499Z,14.43
2023-05-14T07:33:27.217Z,14.18
2023-05-14T07:35:56.204Z,13.47
2023-05-14T07:38:22.781Z,14.27
2023-05-14T07:40:49.359Z,13.55
2023-05-14T07:43:15.970Z,13.48
2023-05-14T07:45:42.640Z,13.88
2023-05-14T07:48:09.313Z,14.10
2023-05-14T07:50:37.577Z,14.48
2023-05-14T07:53:04.223Z,15.95
2023-05-14T07:55:30.862Z,14.93
2023-05-14T07:57:57.417Z,14.32
2023-05-14T08:00:24.332Z,15.83
2023-05-14T08:02:53.572Z,16.67
2023-05-14T08:05:20.518Z,15.68
2023-05-14T08:07:48.286Z,14.95
2023-05-14T08:10:19.843Z,17.13
2023-05-14T08:12:46.614Z,16.17
2023-05-14T08:15:13.370Z,15.77
2023-05-14T08:17:40.020Z,16.63
2023-05-14T08:20:07.639Z,17.35
2023-05-14T08:22:34.325Z,15.82
2023-05-14T08:25:02.912Z,15.60
2023-05-14T08:27:29.508Z,16.20
2023-05-14T08:29:58.627Z,16.70
2023-05-14T08:32:25.250Z,15.90
2023-05-14T08:34:54.268Z,17.40
2023-05-14T08:37:20.861Z,17.40
2023-05-14T08:39:47.477Z,14.18
2023-05-14T08:42:18.386Z,16.70
2023-05-14T08:44:52.437Z,15.98
2023-05-14T08:47:22.017Z,15.85
2023-05-14T08:49:54.980Z,16.33
2023-05-14T08:52:22.504Z,16.63
2023-05-14T08:54:51.242Z,19.48
2023-05-14T08:57:20.132Z,19.42
2023-05-14T08:59:47.340Z,16.27
2023-05-14T09:02:15.280Z,18.10
2023-05-14T09:04:43.022Z,20.05
2023-05-14T09:07:09.741Z,18.33
2023-05-14T09:09:37.336Z,19.13
2023-05-14T09:12:04.186Z,22.45
2023-05-14T09:14:30.890Z,20.27
2023-05-14T09:16:57.597Z,19.95
2023-05-14T09:19:24.427Z,20.60
2023-05-14T09:21:51.119Z,19.50
2023-05-14T09:24:22.481Z,19.67
2023-05-14T09:26:54.196Z,20.00
2023-05-14T09:29:20.937Z,21.48
2023-05-14T09:31:50.491Z,20.02
2023-05-14T09:34:25.368Z,19.63
2023-05-14T09:37:00.272Z,21.13
2023-05-14T09:39:29.710Z,21.03
2023-05-14T09:41:56.698Z,19.55
2023-05-14T09:44:28.707Z,20.40
2023-05-14T09:46:55.904Z,19.30
2023-05-14T09:49:27.155Z,20.95
2023-05-14T09:51:53.823Z,19.83
2023-05-14T09:54:20.456Z,20.25
2023-05-14T09:56:49.642Z,22.20
2023-05-14T09:59:16.251Z,19.73
2023-05-14T10:01:44.045Z,20.20
2023-05-14T10:04:11.834Z,19.10
2023-05-14T10:06:39.737Z,19.08
2023-05-14T10:09:13.253Z,20.27
2023-05-14T10:11:43.905Z,19.45
2023-05-14T10:14:36.390Z,20.88
2023-05-14T10:17:18.071Z,20.10
2023-05-14T10:19:51.234Z,19.33
2023-05-14T10:22:22.372Z,20.23
2023-05-14T10:24:52.793Z,19.35
2023-05-14T10:27:23.183Z,19.67
2023-05-14T10:29:54.633Z,20.20
2023-05-14T10:32:24.395Z,20.20
2023-05-14T10:34:52.472Z,20.58
2023-05-14T10:37:25.538Z,20.17
2023-05-14T10:39:53.906Z,20.52
2023-05-14T10:42:21.421Z,21.60
2023-05-14T10:44:59.453Z,20.85
2023-05-14T10:47:27.159Z,20.35
2023-05-14T10:49:55.883Z,19.48
2023-05-14T10:52:26.368Z,19.67
2023-05-14T10:54:54.131Z,18.83
2023-05-14T10:57:26.423Z,19.35
2023-05-14T10:59:55.265Z,19.45
2023-05-14T11:02:24.770Z,18.70
2023-05-14T11:05:05.862Z,18.45
2023-05-14T11:07:41.055Z,18.50
2023-05-14T11:10:10.035Z,17.48
2023-05-14T11:12:38.651Z,18.95
2023-05-14T11:15:11.362Z,18.40
2023-05-14T11:17:40.453Z,18.67
2023-05-14T11:20:10.413Z,17.73
2023-05-14T11:22:38.633Z,17.05
2023-05-14T11:25:06.396Z,18.67
2023-05-14T11:27:38.699Z,20.92
2023-05-14T11:30:06.639Z,18.92
2023-05-14T11:32:33.421Z,19.30
2023-05-14T11:34:59.980Z,19.00
2023-05-14T11:37:26.596Z,17.50
2023-05-14T11:39:57.420Z,18.75
2023-05-14T11:42:24.794Z,17.77
2023-05-14T11:44:52.315Z,16.00
2023-05-14T11:47:20.686Z,17.88
2023-05-14T11:49:48.644Z,18.17
2023-05-14T11:52:16.800Z,18.80
2023-05-14T11:54:44.242Z,19.77
2023-05-14T11:57:16.606Z,18.00
2023-05-14T11:59:43.662Z,18.73
2023-05-14T12:02:12.130Z,18.98
2023-05-14T12:04:41.834Z,17.30
2023-05-14T12:07:15.163Z,17.83
2023-05-14T12:09:48.965Z,18.20
2023-05-14T12:12:21.461Z,18.58
2023-05-14T12:14:49.382Z,18.38
2023-05-14T12:17:23.927Z,18.20
2023-05-14T12:19:52.355Z,19.25
2023-05-14T12:22:21.256Z,18.97
2023-05-14T12:24:58.302Z,19.33
2023-05-14T12:27:26.472Z,18.88
2023-05-14T12:30:19.889Z,18.40
2023-05-14T12:32:51.501Z,18.33
2023-05-14T12:35:18.995Z,18.47
2023-05-14T12:37:45.752Z,18.90
2023-05-14T12:40:12.713Z,20.52
2023-05-14T12:42:39.266Z,19.90
2023-05-14T12:45:08.502Z,20.75
2023-05-14T12:47:36.496Z,19.53
2023-05-14T12:50:03.347Z,17.60
2023-05-14T12:55:01.809Z,18.40
2023-05-14T12:57:29.867Z,17.77
2023-05-14T12:59:57.638Z,17.47
2023-05-14T13:02:24.294Z,17.95
2023-05-14T13:04:50.858Z,18.58
2023-05-14T13:07:19.940Z,18.27
2023-05-14T13:09:49.505Z,19.63
2023-05-14T13:12:16.124Z,18.70
2023-05-14T13:14:45.063Z,20.08
2023-05-14T13:17:11.712Z,18.05
2023-05-14T13:19:38.292Z,18.95
2023-05-14T13:22:05.104Z,20.00
2023-05-14T13:24:34.663Z,19.10
2023-05-14T13:27:03.841Z,18.90
2023-05-14T13:29:31.627Z,19.70
2023-05-14T13:31:58.305Z,19.40
2023-05-14T13:34:24.943Z,20.35
2023-05-14T13:36:51.922Z,20.10
2023-05-14T13:39:22.620Z,18.38
2023-05-14T13:41:50.760Z,19.25
2023-05-14T13:44:17.395Z,19.27
2023-05-14T13:46:46.463Z,18.55
2023-05-14T13:49:13.175Z,19.67
2023-05-14T13:51:39.841Z,19.15
2023-05-14T13:54:06.460Z,18.08
2023-05-14T13:56:33.114Z,17.25
2023-05-14T13:59:02.246Z,17.63
2023-05-14T14:01:30.792Z,15.97
2023-05-14T14:03:57.720Z,15.82
2023-05-14T14:06:26.429Z,15.23
2023-05-14T14:08:53.304Z,15.68
2023-05-14T14:11:19.900Z,14.85
2023-05-14T14:13:48.743Z,15.10
2023-05-14T14:16:16.262Z,14.60
2023-05-14T14:18:43.377Z,14.95
2023-05-14T14:21:18.028Z,14.75
2023-05-14T14:23:47.777Z,14.32
2023-05-14T14:26:14.664Z,13.83
2023-05-14T14:28:41.337Z,13.80
2023-05-14T14:31:07.894Z,12.68
2023-05-14T14:33:34.404Z,12.80
2023-05-14T14:36:01.026Z,13.50
2023-05-14T14:38:27.642Z,13.77
2023-05-14T14:40:59.855Z,14.20
2023-05-14T14:43:26.514Z,14.80
2023-05-14T14:45:53.181Z,13.48
2023-05-14T14:48:39.903Z,14.90
2023-05-14T14:51:07.392Z,14.47
2023-05-14T14:53:35.137Z,15.13
2023-05-14T14:56:02.152Z,15.82
2023-05-14T14:58:28.835Z,16.05
2023-05-14T15:00:57.005Z,15.82
2023-05-14T15:03:24.522Z,15.90
2023-05-14T15:05:52.239Z,16.67
2023-05-14T15:08:19.231Z,16.67
2023-05-14T15:10:45.872Z,16.85
2023-05-14T15:13:12.917Z,16.80
2023-05-14T15:15:39.542Z,17.20
2023-05-14T15:18:06.247Z,16.10
2023-05-14T15:20:35.113Z,15.52
2023-05-14T15:23:01.894Z,16.88
2023-05-14T15:25:28.998Z,17.65
2023-05-14T15:27:55.578Z,16.07
2023-05-14T15:30:22.260Z,16.10
2023-05-14T15:32:49.429Z,16.60
2023-05-14T15:35:16.176Z,16.00
2023-05-14T15:37:44.076Z,16.33
2023-05-14T15:40:12.041Z,15.30
2023-05-14T15:42:41.981Z,15.43
2023-05-14T15:45:12.780Z,16.85
2023-05-14T15:47:40.261Z,15.05
2023-05-14T15:50:08.053Z,15.27
2023-05-14T15:52:36.346Z,15.00
2023-05-14T15:55:04.492Z,14.68
2023-05-14T15:57:31.749Z,14.63
2023-05-14T15:59:58.349Z,14.50
2023-05-14T16:02:24.998Z,14.80
2023-05-14T16:04:51.710Z,14.40
2023-05-14T16:07:20.498Z,14.52
2023-05-14T16:09:47.151Z,15.52
2023-05-14T16:12:14.381Z,15.02
2023-05-14T16:14:42.165Z,15.25
2023-05-14T16:17:09.208Z,14.17
2023-05-14T16:19:35.777Z,15.02
2023-05-14T16:22:02.431Z,15.20
2023-05-14T16:24:31.637Z,14.82
2023-05-14T16:26:58.561Z,15.88
2023-05-14T16:29:25.152Z,15.17
2023-05-14T16:31:51.846Z,15.65
2023-05-14T16:34:21.213Z,15.48
2023-05-14T16:36:47.871Z,15.80
2023-05-14T16:39:14.587Z,15.52
2023-05-14T16:41:43.527Z,16.33
2023-05-14T16:44:10.190Z,15.82
2023-05-14T16:46:36.829Z,17.08
2023-05-14T16:49:03.493Z,15.88
2023-05-14T16:51:30.110Z,15.57
2023-05-14T16:53:56.648Z,15.87
2023-05-14T16:56:23.219Z,16.15
2023-05-14T16:58:50.009Z,19.52
2023-05-14T17:01:16.657Z,18.48
2023-05-14T17:03:44.862Z,19.10
2023-05-14T17:06:11.514Z,19.47
2023-05-14T17:08:38.214Z,18.90
2023-05-14T17:11:07.231Z,21.02
2023-05-14T17:13:34.119Z,21.33
2023-05-14T17:16:01.099Z,23.67
2023-05-14T17:18:28.435Z,22.67
2023-05-14T17:20:55.161Z,20.13
2023-05-14T17:23:21.830Z,20.55
2023-05-14T17:25:48.486Z,22.33
2023-05-14T17:28:17.521Z,19.38
2023-05-14T17:30:44.094Z,18.30
2023-05-14T17:33:11.563Z,19.67
2023-05-14T17:35:38.355Z,19.20
2023-05-14T17:38:05.016Z,17.38
2023-05-14T17:40:34.261Z,19.63
2023-05-14T17:43:01.104Z,16.60
2023-05-14T17:45:29.449Z,15.50
2023-05-14T17:47:58.881Z,15.40
2023-05-14T17:50:25.557Z,15.57
2023-05-14T17:52:52.264Z,15.73
2023-05-14T17:55:21.406Z,16.27
2023-05-14T17:57:48.147Z,16.13
2023-05-14T18:00:14.933Z,16.45
2023-05-14T18:02:44.155Z,16.55
2023-05-14T18:05:10.966Z,16.30
2023-05-14T18:07:39.751Z,16.60
2023-05-14T18:10:06.982Z,16.40
2023-05-14T18:12:33.546Z,17.50
2023-05-14T18:15:00.148Z,20.00
2023-05-14T18:17:29.167Z,21.92
2023-05-14T18:19:55.866Z,22.77
2023-05-14T18:22:22.416Z,19.00
2023-05-14T18:24:49.057Z,17.17
2023-05-14T18:27:15.816Z,17.20
2023-05-14T18:29:43.637Z,16.02
2023-05-14T18:32:10.320Z,15.37
2023-05-14T18:34:39.153Z,14.82
2023-05-14T18:37:07.172Z,14.63
2023-05-14T18:39:33.755Z,13.80
2023-05-14T18:42:00.710Z,14.50
2023-05-14T18:44:29.849Z,14.03
2023-05-14T18:46:56.727Z,14.90
2023-05-14T18:49:25.858Z,14.32
2023-05-14T18:51:52.440Z,14.82
2023-05-14T18:54:18.993Z,15.38
2023-05-14T18:56:47.659Z,16.10
2023-05-14T18:59:14.448Z,15.90
2023-05-14T19:01:43.343Z,15.88
2023-05-14T19:04:10.058Z,16.02
2023-05-14T19:06:40.293Z,16.42
2023-05-14T19:09:09.624Z,15.50
2023-05-14T19:11:36.533Z,14.90
2023-05-14T19:14:03.147Z,15.75
2023-05-14T19:16:32.207Z,14.55
2023-05-14T19:18:58.910Z,15.10
2023-05-14T19:21:25.517Z,15.03
2023-05-14T19:23:52.148Z,14.73
2023-05-14T19:26:21.647Z,15.73
2023-05-14T19:28:52.791Z,16.58
2023-05-14T19:31:21.946Z,16.05
2023-05-14T19:33:48.667Z,15.93
2023-05-14T19:36:20.034Z,14.82
2023-05-14T19:38:47.505Z,15.50
2023-05-14T19:41:14.303Z,15.73
2023-05-14T19:43:40.949Z,17.40
2023-05-14T19:46:07.836Z,22.03
2023-05-14T19:48:34.522Z,26.13
2023-05-14T19:51:03.326Z,29.95
2023-05-14T19:53:30.220Z,27.30
2023-05-14T19:55:57.678Z,27.83
2023-05-14T19:58:24.822Z,25.80
2023-05-14T20:00:53.465Z,29.42
2023-05-14T20:03:25.496Z,30.02
2023-05-14T20:05:55.056Z,30.13
2023-05-14T20:08:21.755Z,31.80
2023-05-14T20:10:48.532Z,29.57
2023-05-14T20:13:15.355Z,28.35
2023-05-14T20:15:42.955Z,27.35
2023-05-14T20:18:09.767Z,26.10
2023-05-14T20:20:36.720Z,23.60
2023-05-14T20:23:03.650Z,19.67
2023-05-14T20:25:33.339Z,19.02
2023-05-14T20:28:05.314Z,18.92
2023-05-14T20:30:32.023Z,17.58
2023-05-14T20:32:58.720Z,18.30
2023-05-14T20:35:26.198Z,17.30
2023-05-14T20:37:53.258Z,17.42
2023-05-14T20:40:19.980Z,16.75
2023-05-14T20:42:46.662Z,17.45
2023-05-14T20:45:13.232Z,20.15
2023-05-14T20:47:40.506Z,23.10
2023-05-14T20:50:07.696Z,23.52
2023-05-14T20:52:34.354Z,23.83
2023-05-14T20:55:01.979Z,22.58
2023-05-14T20:57:31.271Z,19.23
2023-05-14T20:59:58.088Z,17.57
2023-05-14T21:02:25.050Z,17.95
2023-05-14T21:04:52.422Z,18.20
2023-05-14T21:07:19.089Z,16.70
2023-05-14T21:09:50.817Z,16.00
2023-05-14T21:12:19.668Z,15.40
2023-05-14T21:14:48.333Z,15.27
2023-05-14T21:17:14.899Z,14.77
2023-05-14T21:19:41.449Z,15.55
2023-05-14T21:22:10.118Z,15.57
2023-05-14T21:24:36.733Z,17.70
2023-05-14T21:27:03.389Z,21.10
2023-05-14T21:29:29.954Z,20.00
2023-05-14T21:31:56.640Z,19.23
2023-05-14T21:34:23.224Z,18.80
2023-05-14T21:36:50.099Z,16.70
2023-05-14T21:39:16.798Z,17.42
2023-05-14T21:41:43.444Z,19.58
2023-05-14T21:44:09.986Z,22.77
2023-05-14T21:46:36.586Z,26.05
2023-05-14T21:49:03.409Z,25.07
2023-05-14T21:51:30.068Z,23.38
2023-05-14T21:53:56.678Z,23.73
2023-05-14T21:56:23.949Z,22.00
2023-05-14T21:58:50.588Z,20.05
2023-05-14T22:01:17.215Z,19.97
2023-05-14T22:03:43.913Z,20.08
2023-05-14T22:06:10.555Z,22.77
2023-05-14T22:08:37.150Z,24.85
2023-05-14T22:11:03.960Z,23.42
2023-05-14T22:13:35.034Z,26.80
2023-05-14T22:16:11.993Z,25.10
2023-05-14T22:18:39.299Z,23.20
2023-05-14T22:21:06.165Z,22.02
2023-05-14T22:23:35.250Z,21.08
2023-05-14T22:26:01.903Z,23.00
2023-05-14T22:28:30.698Z,28.30
2023-05-14T22:30:59.794Z,27.77
2023-05-14T22:33:26.502Z,21.23
2023-05-14T22:35:53.415Z,22.98
2023-05-14T22:38:20.436Z,17.30
2023-05-14T22:40:47.231Z,16.25
2023-05-14T22:43:16.354Z,13.20
2023-05-14T22:45:43.703Z,12.75
2023-05-14T22:48:10.555Z,11.48
2023-05-14T22:50:39.645Z,11.07
2023-05-14T22:53:06.301Z,10.50
2023-05-14T22:55:33.315Z,9.63
2023-05-14T22:57:59.951Z,10.13
2023-05-14T23:00:29.120Z,9.57
2023-05-14T23:02:55.813Z,9.80
2023-05-14T23:05:22.894Z,10.45
2023-05-14T23:07:52.658Z,10.00
2023-05-14T23:10:21.750Z,9.25
2023-05-14T23:12:48.338Z,8.95
2023-05-14T23:15:14.933Z,8.37
2023-05-14T23:17:42.131Z,6.90
2023-05-14T23:20:13.240Z,6.28
2023-05-14T23:22:40.446Z,5.85
2023-05-14T23:25:07.826Z,5.93
2023-05-14T23:27:35.109Z,5.83
2023-05-14T23:30:02.440Z,5.15
2023-05-14T23:32:29.110Z,4.65
2023-05-14T23:34:55.872Z,5.10
2023-05-14T23:37:22.500Z,4.63
2023-05-14T23:39:49.160Z,4.27
2023-05-14T23:42:15.838Z,4.38
2023-05-14T23:44:42.419Z,4.63
2023-05-14T23:47:09.065Z,3.80
2023-05-14T23:49:35.856Z,3.88
2023-05-14T23:52:02.479Z,3.93
2023-05-14T23:54:29.144Z,3.38
2023-05-14T23:56:58.425Z,3.90
2023-05-14T23:59:27.115Z,3.53
